sensor_id;sensor_type;location;lat;lon;timestamp;P1;durP1;ratioP1;P2;durP2;ratioP2
69256;SDS011;56376;53.356;-1.748;2023-10-31T00:01:11;2.13;;;1.60;;
69256;SDS011;56376;53.356;-1.748;2023-10-31T00:03:36;2.03;;;1.83;;
69256;SDS011;56376;53.356;-1.748;2023-10-31T00:06:02;1.50;;;1.40;;
69256;SDS011;56376;53.356;-1.748;2023-10-31T00:08:28;2.55;;;1.75;;
69256;SDS011;56376;53.356;-1.748;2023-10-31T00:10:53;1.58;;;1.48;;
69256;SDS011;56376;53.356;-1.748;2023-10-31T00:13:18;2.00;;;1.67;;
69256;SDS011;56376;53.356;-1.748;2023-10-31T00:15:44;1.73;;;1.63;;
69256;SDS011;56376;53.356;-1.748;2023-10-31T00:18:10;1.80;;;1.70;;
69256;SDS011;56376;53.356;-1.748;2023-10-31T00:20:35;1.60;;;1.50;;
69256;SDS011;56376;53.356;-1.748;2023-10-31T00:23:01;1.85;;;1.63;;
69256;SDS011;56376;53.356;-1.748;2023-10-31T00:25:26;1.67;;;1.58;;
69256;SDS011;56376;53.356;-1.748;2023-10-31T00:27:51;1.58;;;1.48;;
69256;SDS011;56376;53.356;-1.748;2023-10-31T00:30:17;2.58;;;1.60;;
69256;SDS011;56376;53.356;-1.748;2023-10-31T00:32:42;1.70;;;1.60;;
69256;SDS011;56376;53.356;-1.748;2023-10-31T00:35:08;1.50;;;1.40;;
69256;SDS011;56376;53.356;-1.748;2023-10-31T00:37:33;1.90;;;1.70;;
69256;SDS011;56376;53.356;-1.748;2023-10-31T00:39:59;1.95;;;1.85;;
69256;SDS011;56376;53.356;-1.748;2023-10-31T00:42:24;2.00;;;1.90;;
69256;SDS011;56376;53.356;-1.748;2023-10-31T00:44:50;1.80;;;1.70;;
69256;SDS011;56376;53.356;-1.748;2023-10-31T00:47:15;1.90;;;1.70;;
69256;SDS011;56376;53.356;-1.748;2023-10-31T00:49:41;2.30;;;1.70;;
69256;SDS011;56376;53.356;-1.748;2023-10-31T00:52:06;1.70;;;1.60;;
69256;SDS011;56376;53.356;-1.748;2023-10-31T00:54:31;1.65;;;1.50;;
69256;SDS011;56376;53.356;-1.748;2023-10-31T00:56:57;1.48;;;1.38;;
69256;SDS011;56376;53.356;-1.748;2023-10-31T00:59:23;1.80;;;1.70;;
69256;SDS011;56376;53.356;-1.748;2023-10-31T01:01:49;1.58;;;1.48;;
69256;SDS011;56376;53.356;-1.748;2023-10-31T01:04:14;1.45;;;1.35;;
69256;SDS011;56376;53.356;-1.748;2023-10-31T01:06:43;1.67;;;1.58;;
69256;SDS011;56376;53.356;-1.748;2023-10-31T01:09:11;1.58;;;1.48;;
69256;SDS011;56376;53.356;-1.748;2023-10-31T01:11:38;1.40;;;1.30;;
69256;SDS011;56376;53.356;-1.748;2023-10-31T01:14:03;1.42;;;1.33;;
69256;SDS011;56376;53.356;-1.748;2023-10-31T01:16:29;1.38;;;1.27;;
69256;SDS011;56376;53.356;-1.748;2023-10-31T01:18:54;1.50;;;1.40;;
69256;SDS011;56376;53.356;-1.748;2023-10-31T01:21:19;1.58;;;1.48;;
69256;SDS011;56376;53.356;-1.748;2023-10-31T01:23:45;1.25;;;1.15;;
69256;SDS011;56376;53.356;-1.748;2023-10-31T01:26:10;1.50;;;1.40;;
69256;SDS011;56376;53.356;-1.748;2023-10-31T01:28:36;1.48;;;1.38;;
69256;SDS011;56376;53.356;-1.748;2023-10-31T01:31:01;1.90;;;1.10;;
69256;SDS011;56376;53.356;-1.748;2023-10-31T01:33:26;0.95;;;0.95;;
69256;SDS011;56376;53.356;-1.748;2023-10-31T01:35:52;1.40;;;1.30;;
69256;SDS011;56376;53.356;-1.748;2023-10-31T01:38:18;2.25;;;1.38;;
69256;SDS011;56376;53.356;-1.748;2023-10-31T01:40:44;1.30;;;1.20;;
69256;SDS011;56376;53.356;-1.748;2023-10-31T01:43:13;1.10;;;1.00;;
69256;SDS011;56376;53.356;-1.748;2023-10-31T01:45:56;1.80;;;1.05;;
69256;SDS011;56376;53.356;-1.748;2023-10-31T01:48:22;1.20;;;1.10;;
69256;SDS011;56376;53.356;-1.748;2023-10-31T01:50:50;1.00;;;1.00;;
69256;SDS011;56376;53.356;-1.748;2023-10-31T01:53:16;1.20;;;1.10;;
69256;SDS011;56376;53.356;-1.748;2023-10-31T01:55:42;1.30;;;1.10;;
69256;SDS011;56376;53.356;-1.748;2023-10-31T01:58:08;1.20;;;1.10;;
69256;SDS011;56376;53.356;-1.748;2023-10-31T02:00:34;1.10;;;1.00;;
69256;SDS011;56376;53.356;-1.748;2023-10-31T02:02:59;0.90;;;0.90;;
69256;SDS011;56376;53.356;-1.748;2023-10-31T02:05:27;1.10;;;0.88;;
69256;SDS011;56376;53.356;-1.748;2023-10-31T02:10:39;0.75;;;0.73;;
69256;SDS011;56376;53.356;-1.748;2023-10-31T02:13:11;0.70;;;0.70;;
69256;SDS011;56376;53.356;-1.748;2023-10-31T02:15:37;0.70;;;0.70;;
69256;SDS011;56376;53.356;-1.748;2023-10-31T02:18:03;0.90;;;0.90;;
69256;SDS011;56376;53.356;-1.748;2023-10-31T02:20:28;1.00;;;0.93;;
69256;SDS011;56376;53.356;-1.748;2023-10-31T02:22:54;0.93;;;0.70;;
69256;SDS011;56376;53.356;-1.748;2023-10-31T02:25:19;0.82;;;0.80;;
69256;SDS011;56376;53.356;-1.748;2023-10-31T02:27:45;0.80;;;0.80;;
69256;SDS011;56376;53.356;-1.748;2023-10-31T02:30:10;1.10;;;1.00;;
69256;SDS011;56376;53.356;-1.748;2023-10-31T02:32:36;0.98;;;0.88;;
69256;SDS011;56376;53.356;-1.748;2023-10-31T02:35:02;0.82;;;0.82;;
69256;SDS011;56376;53.356;-1.748;2023-10-31T02:37:28;1.08;;;0.85;;
69256;SDS011;56376;53.356;-1.748;2023-10-31T02:39:54;0.90;;;0.90;;
69256;SDS011;56376;53.356;-1.748;2023-10-31T02:42:19;0.93;;;0.90;;
69256;SDS011;56376;53.356;-1.748;2023-10-31T02:44:45;0.70;;;0.70;;
69256;SDS011;56376;53.356;-1.748;2023-10-31T02:47:10;0.95;;;0.90;;
69256;SDS011;56376;53.356;-1.748;2023-10-31T02:49:36;0.80;;;0.80;;
69256;SDS011;56376;53.356;-1.748;2023-10-31T02:52:01;0.88;;;0.85;;
69256;SDS011;56376;53.356;-1.748;2023-10-31T02:54:26;0.88;;;0.88;;
69256;SDS011;56376;53.356;-1.748;2023-10-31T02:56:52;0.70;;;0.70;;
69256;SDS011;56376;53.356;-1.748;2023-10-31T02:59:18;0.60;;;0.60;;
69256;SDS011;56376;53.356;-1.748;2023-10-31T03:01:43;0.50;;;0.50;;
69256;SDS011;56376;53.356;-1.748;2023-10-31T03:04:09;0.80;;;0.80;;
69256;SDS011;56376;53.356;-1.748;2023-10-31T03:06:34;0.57;;;0.57;;
69256;SDS011;56376;53.356;-1.748;2023-10-31T03:09:00;0.70;;;0.70;;
69256;SDS011;56376;53.356;-1.748;2023-10-31T03:11:26;0.65;;;0.65;;
69256;SDS011;56376;53.356;-1.748;2023-10-31T03:13:52;0.50;;;0.50;;
69256;SDS011;56376;53.356;-1.748;2023-10-31T03:16:18;0.50;;;0.50;;
69256;SDS011;56376;53.356;-1.748;2023-10-31T03:18:45;0.60;;;0.60;;
69256;SDS011;56376;53.356;-1.748;2023-10-31T03:21:11;0.68;;;0.68;;
69256;SDS011;56376;53.356;-1.748;2023-10-31T03:23:36;0.60;;;0.60;;
69256;SDS011;56376;53.356;-1.748;2023-10-31T03:26:01;0.57;;;0.57;;
69256;SDS011;56376;53.356;-1.748;2023-10-31T03:28:27;0.95;;;0.60;;
69256;SDS011;56376;53.356;-1.748;2023-10-31T03:30:52;0.70;;;0.60;;
69256;SDS011;56376;53.356;-1.748;2023-10-31T03:33:18;0.65;;;0.65;;
69256;SDS011;56376;53.356;-1.748;2023-10-31T03:35:44;0.57;;;0.57;;
69256;SDS011;56376;53.356;-1.748;2023-10-31T03:38:12;1.02;;;0.93;;
69256;SDS011;56376;53.356;-1.748;2023-10-31T03:40:37;0.70;;;0.63;;
69256;SDS011;56376;53.356;-1.748;2023-10-31T03:43:02;0.80;;;0.80;;
69256;SDS011;56376;53.356;-1.748;2023-10-31T03:45:28;0.88;;;0.82;;
69256;SDS011;56376;53.356;-1.748;2023-10-31T03:47:55;0.82;;;0.80;;
69256;SDS011;56376;53.356;-1.748;2023-10-31T03:50:20;0.77;;;0.70;;
69256;SDS011;56376;53.356;-1.748;2023-10-31T03:52:46;0.65;;;0.65;;
69256;SDS011;56376;53.356;-1.748;2023-10-31T03:55:11;0.82;;;0.82;;
69256;SDS011;56376;53.356;-1.748;2023-10-31T03:57:37;1.05;;;1.05;;
69256;SDS011;56376;53.356;-1.748;2023-10-31T04:00:02;0.70;;;0.70;;
69256;SDS011;56376;53.356;-1.748;2023-10-31T04:02:31;0.57;;;0.57;;
69256;SDS011;56376;53.356;-1.748;2023-10-31T04:04:57;0.70;;;0.68;;
69256;SDS011;56376;53.356;-1.748;2023-10-31T04:07:22;0.63;;;0.63;;
69256;SDS011;56376;53.356;-1.748;2023-10-31T04:09:49;1.02;;;0.65;;
69256;SDS011;56376;53.356;-1.748;2023-10-31T04:12:14;0.82;;;0.77;;
69256;SDS011;56376;53.356;-1.748;2023-10-31T04:14:39;1.17;;;0.90;;
69256;SDS011;56376;53.356;-1.748;2023-10-31T04:17:04;1.20;;;1.10;;
69256;SDS011;56376;53.356;-1.748;2023-10-31T04:19:30;0.80;;;0.60;;
69256;SDS011;56376;53.356;-1.748;2023-10-31T04:21:55;1.00;;;0.93;;
69256;SDS011;56376;53.356;-1.748;2023-10-31T04:24:21;0.88;;;0.88;;
69256;SDS011;56376;53.356;-1.748;2023-10-31T04:26:46;1.40;;;1.30;;
69256;SDS011;56376;53.356;-1.748;2023-10-31T04:31:56;1.23;;;1.10;;
69256;SDS011;56376;53.356;-1.748;2023-10-31T04:34:21;1.00;;;0.90;;
69256;SDS011;56376;53.356;-1.748;2023-10-31T04:36:46;1.73;;;0.90;;
69256;SDS011;56376;53.356;-1.748;2023-10-31T04:39:13;0.60;;;0.60;;
69256;SDS011;56376;53.356;-1.748;2023-10-31T04:41:38;1.17;;;0.90;;
69256;SDS011;56376;53.356;-1.748;2023-10-31T04:44:04;1.15;;;1.00;;
69256;SDS011;56376;53.356;-1.748;2023-10-31T04:46:29;1.15;;;1.05;;
69256;SDS011;56376;53.356;-1.748;2023-10-31T04:48:56;1.13;;;1.02;;
69256;SDS011;56376;53.356;-1.748;2023-10-31T04:51:21;1.40;;;1.05;;
69256;SDS011;56376;53.356;-1.748;2023-10-31T04:53:47;1.27;;;1.10;;
69256;SDS011;56376;53.356;-1.748;2023-10-31T04:56:13;1.10;;;1.00;;
69256;SDS011;56376;53.356;-1.748;2023-10-31T04:58:40;1.50;;;1.40;;
69256;SDS011;56376;53.356;-1.748;2023-10-31T05:01:09;1.23;;;1.05;;
69256;SDS011;56376;53.356;-1.748;2023-10-31T05:03:36;1.20;;;1.08;;
69256;SDS011;56376;53.356;-1.748;2023-10-31T05:06:01;1.38;;;1.25;;
69256;SDS011;56376;53.356;-1.748;2023-10-31T05:08:28;1.10;;;1.00;;
69256;SDS011;56376;53.356;-1.748;2023-10-31T05:10:55;1.00;;;0.90;;
69256;SDS011;56376;53.356;-1.748;2023-10-31T05:13:20;1.17;;;0.95;;
69256;SDS011;56376;53.356;-1.748;2023-10-31T05:15:46;0.93;;;0.90;;
69256;SDS011;56376;53.356;-1.748;2023-10-31T05:18:13;1.27;;;1.13;;
69256;SDS011;56376;53.356;-1.748;2023-10-31T05:20:38;1.27;;;1.10;;
69256;SDS011;56376;53.356;-1.748;2023-10-31T05:23:04;1.10;;;0.95;;
69256;SDS011;56376;53.356;-1.748;2023-10-31T05:25:30;1.30;;;1.20;;
69256;SDS011;56376;53.356;-1.748;2023-10-31T05:27:55;1.10;;;1.00;;
69256;SDS011;56376;53.356;-1.748;2023-10-31T05:30:21;1.10;;;0.90;;
69256;SDS011;56376;53.356;-1.748;2023-10-31T05:32:46;1.00;;;0.90;;
69256;SDS011;56376;53.356;-1.748;2023-10-31T05:35:12;0.80;;;0.80;;
69256;SDS011;56376;53.356;-1.748;2023-10-31T05:37:37;0.93;;;0.82;;
69256;SDS011;56376;53.356;-1.748;2023-10-31T05:40:04;2.25;;;0.95;;
69256;SDS011;56376;53.356;-1.748;2023-10-31T05:42:30;1.30;;;1.20;;
69256;SDS011;56376;53.356;-1.748;2023-10-31T05:44:55;1.30;;;1.10;;
69256;SDS011;56376;53.356;-1.748;2023-10-31T05:47:22;1.10;;;0.90;;
69256;SDS011;56376;53.356;-1.748;2023-10-31T05:49:48;1.10;;;1.00;;
69256;SDS011;56376;53.356;-1.748;2023-10-31T05:52:14;1.17;;;1.08;;
69256;SDS011;56376;53.356;-1.748;2023-10-31T05:54:40;1.05;;;0.95;;
69256;SDS011;56376;53.356;-1.748;2023-10-31T05:57:05;1.27;;;1.17;;
69256;SDS011;56376;53.356;-1.748;2023-10-31T05:59:32;1.20;;;1.02;;
69256;SDS011;56376;53.356;-1.748;2023-10-31T06:01:57;0.88;;;0.88;;
69256;SDS011;56376;53.356;-1.748;2023-10-31T06:04:23;0.80;;;0.70;;
69256;SDS011;56376;53.356;-1.748;2023-10-31T06:06:50;1.27;;;1.17;;
69256;SDS011;56376;53.356;-1.748;2023-10-31T06:09:17;1.15;;;1.05;;
69256;SDS011;56376;53.356;-1.748;2023-10-31T06:11:43;1.15;;;1.05;;
69256;SDS011;56376;53.356;-1.748;2023-10-31T06:14:09;1.10;;;1.00;;
69256;SDS011;56376;53.356;-1.748;2023-10-31T06:16:42;1.10;;;1.00;;
69256;SDS011;56376;53.356;-1.748;2023-10-31T06:19:09;1.38;;;1.10;;
69256;SDS011;56376;53.356;-1.748;2023-10-31T06:21:35;1.40;;;1.10;;
69256;SDS011;56376;53.356;-1.748;2023-10-31T06:24:00;1.00;;;0.90;;
69256;SDS011;56376;53.356;-1.748;2023-10-31T06:26:26;1.10;;;1.00;;
69256;SDS011;56376;53.356;-1.748;2023-10-31T06:28:53;1.25;;;0.98;;
69256;SDS011;56376;53.356;-1.748;2023-10-31T06:31:18;0.90;;;0.80;;
69256;SDS011;56376;53.356;-1.748;2023-10-31T06:33:44;1.30;;;1.00;;
69256;SDS011;56376;53.356;-1.748;2023-10-31T06:36:09;1.05;;;0.90;;
69256;SDS011;56376;53.356;-1.748;2023-10-31T06:41:23;1.20;;;1.10;;
69256;SDS011;56376;53.356;-1.748;2023-10-31T06:43:49;0.98;;;0.80;;
69256;SDS011;56376;53.356;-1.748;2023-10-31T06:46:14;0.80;;;0.80;;
69256;SDS011;56376;53.356;-1.748;2023-10-31T06:48:41;0.77;;;0.77;;
69256;SDS011;56376;53.356;-1.748;2023-10-31T06:51:07;1.20;;;1.02;;
69256;SDS011;56376;53.356;-1.748;2023-10-31T06:53:32;0.80;;;0.80;;
69256;SDS011;56376;53.356;-1.748;2023-10-31T06:55:57;1.30;;;1.10;;
69256;SDS011;56376;53.356;-1.748;2023-10-31T06:58:23;0.93;;;0.90;;
69256;SDS011;56376;53.356;-1.748;2023-10-31T07:00:48;1.10;;;1.00;;
69256;SDS011;56376;53.356;-1.748;2023-10-31T07:03:13;1.20;;;1.10;;
69256;SDS011;56376;53.356;-1.748;2023-10-31T07:05:40;1.15;;;1.05;;
69256;SDS011;56376;53.356;-1.748;2023-10-31T07:08:07;1.58;;;1.48;;
69256;SDS011;56376;53.356;-1.748;2023-10-31T07:10:33;1.50;;;1.40;;
69256;SDS011;56376;53.356;-1.748;2023-10-31T07:12:58;1.50;;;1.40;;
69256;SDS011;56376;53.356;-1.748;2023-10-31T07:15:24;1.70;;;1.60;;
69256;SDS011;56376;53.356;-1.748;2023-10-31T07:17:50;2.00;;;1.70;;
69256;SDS011;56376;53.356;-1.748;2023-10-31T07:20:16;1.58;;;1.48;;
69256;SDS011;56376;53.356;-1.748;2023-10-31T07:22:42;1.80;;;1.60;;
69256;SDS011;56376;53.356;-1.748;2023-10-31T07:25:07;1.60;;;1.50;;
69256;SDS011;56376;53.356;-1.748;2023-10-31T07:27:33;1.83;;;1.73;;
69256;SDS011;56376;53.356;-1.748;2023-10-31T07:30:01;2.08;;;1.88;;
69256;SDS011;56376;53.356;-1.748;2023-10-31T07:32:27;2.40;;;2.00;;
69256;SDS011;56376;53.356;-1.748;2023-10-31T07:34:53;2.40;;;2.10;;
69256;SDS011;56376;53.356;-1.748;2023-10-31T07:37:18;2.70;;;2.50;;
69256;SDS011;56376;53.356;-1.748;2023-10-31T07:39:44;3.70;;;3.10;;
69256;SDS011;56376;53.356;-1.748;2023-10-31T07:42:09;4.20;;;3.47;;
69256;SDS011;56376;53.356;-1.748;2023-10-31T07:44:34;4.45;;;3.47;;
69256;SDS011;56376;53.356;-1.748;2023-10-31T07:47:00;3.95;;;3.45;;
69256;SDS011;56376;53.356;-1.748;2023-10-31T07:49:27;3.38;;;2.80;;
69256;SDS011;56376;53.356;-1.748;2023-10-31T07:51:52;3.45;;;3.15;;
69256;SDS011;56376;53.356;-1.748;2023-10-31T07:54:17;2.75;;;2.33;;
69256;SDS011;56376;53.356;-1.748;2023-10-31T07:56:43;3.28;;;2.88;;
69256;SDS011;56376;53.356;-1.748;2023-10-31T07:59:09;3.13;;;2.65;;
69256;SDS011;56376;53.356;-1.748;2023-10-31T08:01:34;3.65;;;3.20;;
69256;SDS011;56376;53.356;-1.748;2023-10-31T08:04:00;3.30;;;3.00;;
69256;SDS011;56376;53.356;-1.748;2023-10-31T08:06:25;3.70;;;3.10;;
69256;SDS011;56376;53.356;-1.748;2023-10-31T08:08:53;3.42;;;3.13;;
69256;SDS011;56376;53.356;-1.748;2023-10-31T08:11:18;3.50;;;3.20;;
69256;SDS011;56376;53.356;-1.748;2023-10-31T08:13:44;3.65;;;3.33;;
69256;SDS011;56376;53.356;-1.748;2023-10-31T08:16:09;3.75;;;3.45;;
69256;SDS011;56376;53.356;-1.748;2023-10-31T08:18:36;3.78;;;3.47;;
69256;SDS011;56376;53.356;-1.748;2023-10-31T08:21:02;5.32;;;4.00;;
69256;SDS011;56376;53.356;-1.748;2023-10-31T08:23:28;4.05;;;3.67;;
69256;SDS011;56376;53.356;-1.748;2023-10-31T08:25:54;3.83;;;3.45;;
69256;SDS011;56376;53.356;-1.748;2023-10-31T08:28:22;3.53;;;2.97;;
69256;SDS011;56376;53.356;-1.748;2023-10-31T08:30:47;3.40;;;3.10;;
69256;SDS011;56376;53.356;-1.748;2023-10-31T08:33:13;3.38;;;2.78;;
69256;SDS011;56376;53.356;-1.748;2023-10-31T08:35:39;2.92;;;2.60;;
69256;SDS011;56376;53.356;-1.748;2023-10-31T08:38:04;2.90;;;2.60;;
69256;SDS011;56376;53.356;-1.748;2023-10-31T08:40:30;2.70;;;2.15;;
69256;SDS011;56376;53.356;-1.748;2023-10-31T08:42:55;2.90;;;2.45;;
69256;SDS011;56376;53.356;-1.748;2023-10-31T08:45:20;2.60;;;2.40;;
69256;SDS011;56376;53.356;-1.748;2023-10-31T08:47:46;2.75;;;2.10;;
69256;SDS011;56376;53.356;-1.748;2023-10-31T08:50:12;2.40;;;2.17;;
69256;SDS011;56376;53.356;-1.748;2023-10-31T08:52:38;2.60;;;2.20;;
69256;SDS011;56376;53.356;-1.748;2023-10-31T08:55:04;2.45;;;2.25;;
69256;SDS011;56376;53.356;-1.748;2023-10-31T08:57:29;3.28;;;2.10;;
69256;SDS011;56376;53.356;-1.748;2023-10-31T08:59:55;2.47;;;2.15;;
69256;SDS011;56376;53.356;-1.748;2023-10-31T09:02:20;2.42;;;2.15;;
69256;SDS011;56376;53.356;-1.748;2023-10-31T09:04:46;3.10;;;2.30;;
69256;SDS011;56376;53.356;-1.748;2023-10-31T09:07:11;2.28;;;2.08;;
69256;SDS011;56376;53.356;-1.748;2023-10-31T09:09:37;2.58;;;2.30;;
69256;SDS011;56376;53.356;-1.748;2023-10-31T09:12:03;3.03;;;2.72;;
69256;SDS011;56376;53.356;-1.748;2023-10-31T09:14:28;2.50;;;2.22;;
69256;SDS011;56376;53.356;-1.748;2023-10-31T09:16:54;2.95;;;2.28;;
69256;SDS011;56376;53.356;-1.748;2023-10-31T09:21:48;2.88;;;2.58;;
69256;SDS011;56376;53.356;-1.748;2023-10-31T09:24:13;3.28;;;2.70;;
69256;SDS011;56376;53.356;-1.748;2023-10-31T09:26:42;2.50;;;2.10;;
69256;SDS011;56376;53.356;-1.748;2023-10-31T09:29:12;3.03;;;2.53;;
69256;SDS011;56376;53.356;-1.748;2023-10-31T09:31:38;2.85;;;2.38;;
69256;SDS011;56376;53.356;-1.748;2023-10-31T09:34:03;2.92;;;2.17;;
69256;SDS011;56376;53.356;-1.748;2023-10-31T09:36:32;2.78;;;2.42;;
69256;SDS011;56376;53.356;-1.748;2023-10-31T09:38:58;3.40;;;2.70;;
69256;SDS011;56376;53.356;-1.748;2023-10-31T09:41:24;3.03;;;2.45;;
69256;SDS011;56376;53.356;-1.748;2023-10-31T09:43:49;3.33;;;2.63;;
69256;SDS011;56376;53.356;-1.748;2023-10-31T09:46:15;3.08;;;2.33;;
69256;SDS011;56376;53.356;-1.748;2023-10-31T09:48:42;2.50;;;2.13;;
69256;SDS011;56376;53.356;-1.748;2023-10-31T09:51:08;3.33;;;2.92;;
69256;SDS011;56376;53.356;-1.748;2023-10-31T09:53:34;3.53;;;2.53;;
69256;SDS011;56376;53.356;-1.748;2023-10-31T09:56:03;2.60;;;2.30;;
69256;SDS011;56376;53.356;-1.748;2023-10-31T10:01:14;2.95;;;2.25;;
69256;SDS011;56376;53.356;-1.748;2023-10-31T10:03:39;2.65;;;2.10;;
69256;SDS011;56376;53.356;-1.748;2023-10-31T10:06:05;3.60;;;2.20;;
69256;SDS011;56376;53.356;-1.748;2023-10-31T10:08:31;2.67;;;2.10;;
69256;SDS011;56376;53.356;-1.748;2023-10-31T10:10:57;3.47;;;2.40;;
69256;SDS011;56376;53.356;-1.748;2023-10-31T10:13:22;2.75;;;2.30;;
69256;SDS011;56376;53.356;-1.748;2023-10-31T10:15:49;3.10;;;2.17;;
69256;SDS011;56376;53.356;-1.748;2023-10-31T10:18:32;2.80;;;2.30;;
69256;SDS011;56376;53.356;-1.748;2023-10-31T10:21:00;2.95;;;2.50;;
69256;SDS011;56376;53.356;-1.748;2023-10-31T10:23:28;2.85;;;2.20;;
69256;SDS011;56376;53.356;-1.748;2023-10-31T10:25:54;3.20;;;2.50;;
69256;SDS011;56376;53.356;-1.748;2023-10-31T10:28:23;2.45;;;1.90;;
69256;SDS011;56376;53.356;-1.748;2023-10-31T10:30:49;2.42;;;1.90;;
69256;SDS011;56376;53.356;-1.748;2023-10-31T10:33:16;2.20;;;1.88;;
69256;SDS011;56376;53.356;-1.748;2023-10-31T10:35:42;2.33;;;1.80;;
69256;SDS011;56376;53.356;-1.748;2023-10-31T10:38:10;2.65;;;2.20;;
69256;SDS011;56376;53.356;-1.748;2023-10-31T10:40:37;2.38;;;2.10;;
69256;SDS011;56376;53.356;-1.748;2023-10-31T10:45:46;2.05;;;1.67;;
69256;SDS011;56376;53.356;-1.748;2023-10-31T10:48:24;2.10;;;1.60;;
69256;SDS011;56376;53.356;-1.748;2023-10-31T10:50:55;2.55;;;1.90;;
69256;SDS011;56376;53.356;-1.748;2023-10-31T10:53:25;1.77;;;1.63;;
69256;SDS011;56376;53.356;-1.748;2023-10-31T10:55:55;2.03;;;1.70;;
69256;SDS011;56376;53.356;-1.748;2023-10-31T10:58:49;2.28;;;1.77;;
69256;SDS011;56376;53.356;-1.748;2023-10-31T11:01:26;2.35;;;1.65;;
69256;SDS011;56376;53.356;-1.748;2023-10-31T11:03:53;2.30;;;2.00;;
69256;SDS011;56376;53.356;-1.748;2023-10-31T11:06:20;3.30;;;2.15;;
69256;SDS011;56376;53.356;-1.748;2023-10-31T11:08:46;2.40;;;1.85;;
69256;SDS011;56376;53.356;-1.748;2023-10-31T11:11:12;2.83;;;1.98;;
69256;SDS011;56376;53.356;-1.748;2023-10-31T11:13:40;2.83;;;2.10;;
69256;SDS011;56376;53.356;-1.748;2023-10-31T11:16:09;2.90;;;2.00;;
69256;SDS011;56376;53.356;-1.748;2023-10-31T11:18:40;2.17;;;1.98;;
69256;SDS011;56376;53.356;-1.748;2023-10-31T11:21:06;2.15;;;1.80;;
69256;SDS011;56376;53.356;-1.748;2023-10-31T11:23:32;2.38;;;1.90;;
69256;SDS011;56376;53.356;-1.748;2023-10-31T11:25:57;2.30;;;1.80;;
69256;SDS011;56376;53.356;-1.748;2023-10-31T11:28:24;2.28;;;1.73;;
69256;SDS011;56376;53.356;-1.748;2023-10-31T11:30:51;2.55;;;2.05;;
69256;SDS011;56376;53.356;-1.748;2023-10-31T11:33:22;2.75;;;2.00;;
69256;SDS011;56376;53.356;-1.748;2023-10-31T11:35:49;3.53;;;2.03;;
69256;SDS011;56376;53.356;-1.748;2023-10-31T11:38:16;2.58;;;2.20;;
69256;SDS011;56376;53.356;-1.748;2023-10-31T11:43:09;2.50;;;2.10;;
69256;SDS011;56376;53.356;-1.748;2023-10-31T11:45:45;2.60;;;2.20;;
69256;SDS011;56376;53.356;-1.748;2023-10-31T11:51:13;2.65;;;2.22;;
69256;SDS011;56376;53.356;-1.748;2023-10-31T11:53:39;3.03;;;2.40;;
69256;SDS011;56376;53.356;-1.748;2023-10-31T11:56:05;3.05;;;2.70;;
69256;SDS011;56376;53.356;-1.748;2023-10-31T12:04:23;3.13;;;2.30;;
69256;SDS011;56376;53.356;-1.748;2023-10-31T12:06:56;2.72;;;2.33;;
69256;SDS011;56376;53.356;-1.748;2023-10-31T12:09:24;2.97;;;2.40;;
69256;SDS011;56376;53.356;-1.748;2023-10-31T12:11:49;2.63;;;2.38;;
69256;SDS011;56376;53.356;-1.748;2023-10-31T12:14:17;3.05;;;2.47;;
69256;SDS011;56376;53.356;-1.748;2023-10-31T12:16:43;2.90;;;2.40;;
69256;SDS011;56376;53.356;-1.748;2023-10-31T12:19:10;3.13;;;2.80;;
69256;SDS011;56376;53.356;-1.748;2023-10-31T12:21:40;3.35;;;2.70;;
69256;SDS011;56376;53.356;-1.748;2023-10-31T12:24:11;3.15;;;2.67;;
69256;SDS011;56376;53.356;-1.748;2023-10-31T12:26:38;3.03;;;2.17;;
69256;SDS011;56376;53.356;-1.748;2023-10-31T12:31:46;3.33;;;2.75;;
69256;SDS011;56376;53.356;-1.748;2023-10-31T12:34:14;2.80;;;2.30;;
69256;SDS011;56376;53.356;-1.748;2023-10-31T12:36:43;2.22;;;1.95;;
69256;SDS011;56376;53.356;-1.748;2023-10-31T12:39:12;2.35;;;2.15;;
69256;SDS011;56376;53.356;-1.748;2023-10-31T12:41:39;2.60;;;2.17;;
69256;SDS011;56376;53.356;-1.748;2023-10-31T12:44:06;2.60;;;2.30;;
69256;SDS011;56376;53.356;-1.748;2023-10-31T12:46:39;3.03;;;2.30;;
69256;SDS011;56376;53.356;-1.748;2023-10-31T12:49:16;2.55;;;2.35;;
69256;SDS011;56376;53.356;-1.748;2023-10-31T12:51:58;2.83;;;2.30;;
69256;SDS011;56376;53.356;-1.748;2023-10-31T12:54:28;2.50;;;2.20;;
69256;SDS011;56376;53.356;-1.748;2023-10-31T12:57:02;3.35;;;2.42;;
69256;SDS011;56376;53.356;-1.748;2023-10-31T12:59:35;2.65;;;2.30;;
69256;SDS011;56376;53.356;-1.748;2023-10-31T13:02:02;3.47;;;2.70;;
69256;SDS011;56376;53.356;-1.748;2023-10-31T13:04:29;2.67;;;2.40;;
69256;SDS011;56376;53.356;-1.748;2023-10-31T13:06:56;2.67;;;2.20;;
69256;SDS011;56376;53.356;-1.748;2023-10-31T13:09:27;2.50;;;2.28;;
69256;SDS011;56376;53.356;-1.748;2023-10-31T13:12:05;2.50;;;2.20;;
69256;SDS011;56376;53.356;-1.748;2023-10-31T13:14:32;2.83;;;2.53;;
69256;SDS011;56376;53.356;-1.748;2023-10-31T13:16:58;2.47;;;2.28;;
69256;SDS011;56376;53.356;-1.748;2023-10-31T13:19:24;2.58;;;2.05;;
69256;SDS011;56376;53.356;-1.748;2023-10-31T13:21:49;2.78;;;2.10;;
69256;SDS011;56376;53.356;-1.748;2023-10-31T13:24:16;2.75;;;2.17;;
69256;SDS011;56376;53.356;-1.748;2023-10-31T13:26:41;2.33;;;2.08;;
69256;SDS011;56376;53.356;-1.748;2023-10-31T13:29:10;2.58;;;2.35;;
69256;SDS011;56376;53.356;-1.748;2023-10-31T13:31:36;2.90;;;2.33;;
69256;SDS011;56376;53.356;-1.748;2023-10-31T13:34:02;2.83;;;2.53;;
69256;SDS011;56376;53.356;-1.748;2023-10-31T13:36:27;2.60;;;2.35;;
69256;SDS011;56376;53.356;-1.748;2023-10-31T13:38:53;2.88;;;2.30;;
69256;SDS011;56376;53.356;-1.748;2023-10-31T13:41:18;2.50;;;2.30;;
69256;SDS011;56376;53.356;-1.748;2023-10-31T13:43:43;2.60;;;2.20;;
69256;SDS011;56376;53.356;-1.748;2023-10-31T13:46:09;2.80;;;2.50;;
69256;SDS011;56376;53.356;-1.748;2023-10-31T13:48:36;2.10;;;1.90;;
69256;SDS011;56376;53.356;-1.748;2023-10-31T13:51:22;2.55;;;2.35;;
69256;SDS011;56376;53.356;-1.748;2023-10-31T13:53:47;2.80;;;2.50;;
69256;SDS011;56376;53.356;-1.748;2023-10-31T13:56:15;4.65;;;2.40;;
69256;SDS011;56376;53.356;-1.748;2023-10-31T13:58:41;3.17;;;2.42;;
69256;SDS011;56376;53.356;-1.748;2023-10-31T14:01:07;2.42;;;2.20;;
69256;SDS011;56376;53.356;-1.748;2023-10-31T14:03:32;2.50;;;2.10;;
69256;SDS011;56376;53.356;-1.748;2023-10-31T14:05:58;2.00;;;1.80;;
69256;SDS011;56376;53.356;-1.748;2023-10-31T14:08:25;2.42;;;2.00;;
69256;SDS011;56376;53.356;-1.748;2023-10-31T14:10:50;2.28;;;2.08;;
69256;SDS011;56376;53.356;-1.748;2023-10-31T14:13:16;3.28;;;2.97;;
69256;SDS011;56376;53.356;-1.748;2023-10-31T14:15:42;2.10;;;1.90;;
69256;SDS011;56376;53.356;-1.748;2023-10-31T14:18:09;2.22;;;2.03;;
69256;SDS011;56376;53.356;-1.748;2023-10-31T14:20:34;2.13;;;1.92;;
69256;SDS011;56376;53.356;-1.748;2023-10-31T14:23:00;2.00;;;1.80;;
69256;SDS011;56376;53.356;-1.748;2023-10-31T14:25:25;2.20;;;2.00;;
69256;SDS011;56376;53.356;-1.748;2023-10-31T14:27:50;2.08;;;1.80;;
69256;SDS011;56376;53.356;-1.748;2023-10-31T14:30:16;1.88;;;1.65;;
69256;SDS011;56376;53.356;-1.748;2023-10-31T14:32:42;1.92;;;1.73;;
69256;SDS011;56376;53.356;-1.748;2023-10-31T14:35:07;1.98;;;1.75;;
69256;SDS011;56376;53.356;-1.748;2023-10-31T14:37:33;2.17;;;1.80;;
69256;SDS011;56376;53.356;-1.748;2023-10-31T14:40:01;2.13;;;1.67;;
69256;SDS011;56376;53.356;-1.748;2023-10-31T14:42:28;1.80;;;1.70;;
69256;SDS011;56376;53.356;-1.748;2023-10-31T14:44:53;1.85;;;1.65;;
69256;SDS011;56376;53.356;-1.748;2023-10-31T14:47:21;1.60;;;1.50;;
69256;SDS011;56376;53.356;-1.748;2023-10-31T14:49:47;1.50;;;1.40;;
69256;SDS011;56376;53.356;-1.748;2023-10-31T14:52:12;1.33;;;1.23;;
69256;SDS011;56376;53.356;-1.748;2023-10-31T14:54:38;1.75;;;1.58;;
69256;SDS011;56376;53.356;-1.748;2023-10-31T14:57:04;1.40;;;1.27;;
69256;SDS011;56376;53.356;-1.748;2023-10-31T14:59:32;1.52;;;1.42;;